Kvitbjoern — LM9158 — position and weather

sailwx.info

Track history (hours):
 
Tides and Currents Weather Stations Pressure Air Temp Water Temp Dewpoint Dewpoint Depression Visibility Wind Speed Wind Dir Waves Ship Positions

Kvitbjoern

Last reported at 2017-Apr-27 11:20 UTC. Time now 2017-Apr-27 14:54 UTC.
Position N 66°22' E 012°21'.

Length 10 m.

Type: Fishing. MMSI: 257454420.

Date/timePositionNaut miles runAvg speedWind from/ knotsBaromVisibWave heightAir tempDewpointWater temp
2017-Apr-27 11:20N 66°22' E 012°21'0 0.3
2017-Apr-27 11:00N 66°22' E 012°21'2 1.0
2017-Apr-27 08:45N 66°22' E 012°27'0 0.3
2017-Apr-27 08:27N 66°22' E 012°27'0 0.2
2017-Apr-27 07:57N 66°22' E 012°27'1 2.8
2017-Apr-27 07:30N 66°22' E 012°24'0 0.1
2017-Apr-27 06:57N 66°22' E 012°24'0 0.3
2017-Apr-27 06:27N 66°22' E 012°24'0 0.5
2017-Apr-27 05:59N 66°22' E 012°24'0 0.3
2017-Apr-27 05:29N 66°22' E 012°24'0 0.2
2017-Apr-27 05:00N 66°22' E 012°24'1 0.1
2017-Apr-26 11:35N 66°22' E 012°21'0 0.0
2017-Apr-26 11:29N 66°22' E 012°21'2 3.3
2017-Apr-26 11:00N 66°23' E 012°25'1 1.6
2017-Apr-26 10:27N 66°22' E 012°27'1 1.8
2017-Apr-26 10:01N 66°22' E 012°26'0 0.5
2017-Apr-26 09:27N 66°22' E 012°25'0 0.4
2017-Apr-26 08:57N 66°22' E 012°25'0 0.2
2017-Apr-26 08:24N 66°22' E 012°25'0 0.2
2017-Apr-26 07:59N 66°22' E 012°24'0 0.3
2017-Apr-26 07:29N 66°22' E 012°24'0 0.1
2017-Apr-26 06:37N 66°22' E 012°24'0 0.2
2017-Apr-26 06:25N 66°22' E 012°24'0 0.2
2017-Apr-26 05:55N 66°22' E 012°24'1 2.3
2017-Apr-26 05:27N 66°22' E 012°21'0 0.0
2017-Apr-25 13:48N 66°22' E 012°21'0 0.0
2017-Apr-25 13:30N 66°22' E 012°21'2 3.1
2017-Apr-25 12:59N 66°22' E 012°25'0 0.5
2017-Apr-25 12:30N 66°22' E 012°25'0 0.6
2017-Apr-25 12:00N 66°22' E 012°24'0 0.3
2017-Apr-25 11:27N 66°22' E 012°24'0 0.2
2017-Apr-25 10:59N 66°22' E 012°24'0 0.7
2017-Apr-25 10:28N 66°22' E 012°25'0 0.5
2017-Apr-25 09:58N 66°22' E 012°24'0 0.2
2017-Apr-25 09:22N 66°22' E 012°24'0 1.0
2017-Apr-25 09:00N 66°22' E 012°24'1 1.1
2017-Apr-25 08:05N 66°23' E 012°24'0 0.1
2017-Apr-25 06:35N 66°23' E 012°23'1 2.6
2017-Apr-25 06:14N 66°24' E 012°21'0 0.1
2017-Apr-25 05:41N 66°24' E 012°22'0 2.3
2017-Apr-25 05:29N 66°23' E 012°21'1 1.8
2017-Apr-25 04:56N 66°22' E 012°21'0 0.0
2017-Apr-24 13:56N 66°22' E 012°21'1 3.1
2017-Apr-24 13:30N 66°22' E 012°25'0 0.5
2017-Apr-24 13:00N 66°22' E 012°24'2 1.4
2017-Apr-24 11:28N 66°24' E 012°23'1 1.5
2017-Apr-24 11:00N 66°24' E 012°22'1 1.3
2017-Apr-24 10:30N 66°23' E 012°21'1 1.6
2017-Apr-24 10:00N 66°22' E 012°21'0 0.0
2017-Apr-24 09:30N 66°22' E 012°21'0 0.0
2017-Apr-24 09:00N 66°22' E 012°21'  
2017-Apr-18 12:15N 66°22' E 012°21'0 0.0
2017-Apr-18 11:57N 66°22' E 012°21'0 0.0
2017-Apr-18 11:27N 66°22' E 012°21'0 0.0
2017-Apr-18 10:57N 66°22' E 012°21'2 2.5
2017-Apr-18 10:18N 66°22' E 012°25'0 0.1
2017-Apr-18 09:48N 66°22' E 012°25'0 0.2
2017-Apr-18 09:27N 66°22' E 012°25'0 0.2
2017-Apr-18 08:11N 66°22' E 012°24'0 1.0
2017-Apr-18 08:01N 66°22' E 012°24'0 0.2
2017-Apr-18 07:27N 66°22' E 012°24'0 0.1
2017-Apr-18 06:57N 66°22' E 012°24'0 0.1
2017-Apr-18 06:27N 66°22' E 012°24'1 2.2
2017-Apr-18 06:00N 66°22' E 012°22'0 0.0
2017-Apr-17 13:40N 66°22' E 012°21'0 0.0
2017-Apr-17 13:28N 66°22' E 012°21'0 0.1
2017-Apr-17 13:00N 66°22' E 012°21'2 2.5
2017-Apr-17 12:24N 66°22' E 012°25'0 0.7
2017-Apr-17 12:00N 66°22' E 012°24'0 0.5
2017-Apr-17 11:28N 66°22' E 012°24'  
Track history (hours):
 
Tides and Currents Weather Stations Pressure Air Temp Water Temp Dewpoint Dewpoint Depression Visibility Wind Speed Wind Dir Waves Ship Positions

Kvitbjoern

Last reported at 2017-Apr-27 11:20 UTC. Time now 2017-Apr-27 14:54 UTC.
Position N 66°22' E 012°21'.

Length 10 m.

Type: Fishing. MMSI: 257454420.

Date/timePositionNaut miles runAvg speedWind from/ knotsBaromVisibWave heightAir tempDewpointWater temp
2017-Apr-27 11:20N 66°22' E 012°21'0 0.3
2017-Apr-27 11:00N 66°22' E 012°21'2 1.0
2017-Apr-27 08:45N 66°22' E 012°27'0 0.3
2017-Apr-27 08:27N 66°22' E 012°27'0 0.2
2017-Apr-27 07:57N 66°22' E 012°27'1 2.8
2017-Apr-27 07:30N 66°22' E 012°24'0 0.1
2017-Apr-27 06:57N 66°22' E 012°24'0 0.3
2017-Apr-27 06:27N 66°22' E 012°24'0 0.5
2017-Apr-27 05:59N 66°22' E 012°24'0 0.3
2017-Apr-27 05:29N 66°22' E 012°24'0 0.2
2017-Apr-27 05:00N 66°22' E 012°24'1 0.1
2017-Apr-26 11:35N 66°22' E 012°21'0 0.0
2017-Apr-26 11:29N 66°22' E 012°21'2 3.3
2017-Apr-26 11:00N 66°23' E 012°25'1 1.6
2017-Apr-26 10:27N 66°22' E 012°27'1 1.8
2017-Apr-26 10:01N 66°22' E 012°26'0 0.5
2017-Apr-26 09:27N 66°22' E 012°25'0 0.4
2017-Apr-26 08:57N 66°22' E 012°25'0 0.2
2017-Apr-26 08:24N 66°22' E 012°25'0 0.2
2017-Apr-26 07:59N 66°22' E 012°24'0 0.3
2017-Apr-26 07:29N 66°22' E 012°24'0 0.1
2017-Apr-26 06:37N 66°22' E 012°24'0 0.2
2017-Apr-26 06:25N 66°22' E 012°24'0 0.2
2017-Apr-26 05:55N 66°22' E 012°24'1 2.3
2017-Apr-26 05:27N 66°22' E 012°21'0 0.0
2017-Apr-25 13:48N 66°22' E 012°21'0 0.0
2017-Apr-25 13:30N 66°22' E 012°21'2 3.1
2017-Apr-25 12:59N 66°22' E 012°25'0 0.5
2017-Apr-25 12:30N 66°22' E 012°25'0 0.6
2017-Apr-25 12:00N 66°22' E 012°24'0 0.3
2017-Apr-25 11:27N 66°22' E 012°24'0 0.2
2017-Apr-25 10:59N 66°22' E 012°24'0 0.7
2017-Apr-25 10:28N 66°22' E 012°25'0 0.5
2017-Apr-25 09:58N 66°22' E 012°24'0 0.2
2017-Apr-25 09:22N 66°22' E 012°24'0 1.0
2017-Apr-25 09:00N 66°22' E 012°24'1 1.1
2017-Apr-25 08:05N 66°23' E 012°24'0 0.1
2017-Apr-25 06:35N 66°23' E 012°23'1 2.6
2017-Apr-25 06:14N 66°24' E 012°21'0 0.1
2017-Apr-25 05:41N 66°24' E 012°22'0 2.3
2017-Apr-25 05:29N 66°23' E 012°21'1 1.8
2017-Apr-25 04:56N 66°22' E 012°21'0 0.0
2017-Apr-24 13:56N 66°22' E 012°21'1 3.1
2017-Apr-24 13:30N 66°22' E 012°25'0 0.5
2017-Apr-24 13:00N 66°22' E 012°24'2 1.4
2017-Apr-24 11:28N 66°24' E 012°23'1 1.5
2017-Apr-24 11:00N 66°24' E 012°22'1 1.3
2017-Apr-24 10:30N 66°23' E 012°21'1 1.6
2017-Apr-24 10:00N 66°22' E 012°21'0 0.0
2017-Apr-24 09:30N 66°22' E 012°21'0 0.0
2017-Apr-24 09:00N 66°22' E 012°21'  
2017-Apr-18 12:15N 66°22' E 012°21'0 0.0
2017-Apr-18 11:57N 66°22' E 012°21'0 0.0
2017-Apr-18 11:27N 66°22' E 012°21'0 0.0
2017-Apr-18 10:57N 66°22' E 012°21'2 2.5
2017-Apr-18 10:18N 66°22' E 012°25'0 0.1
2017-Apr-18 09:48N 66°22' E 012°25'0 0.2
2017-Apr-18 09:27N 66°22' E 012°25'0 0.2
2017-Apr-18 08:11N 66°22' E 012°24'0 1.0
2017-Apr-18 08:01N 66°22' E 012°24'0 0.2
2017-Apr-18 07:27N 66°22' E 012°24'0 0.1
2017-Apr-18 06:57N 66°22' E 012°24'0 0.1
2017-Apr-18 06:27N 66°22' E 012°24'1 2.2
2017-Apr-18 06:00N 66°22' E 012°22'0 0.0
2017-Apr-17 13:40N 66°22' E 012°21'0 0.0
2017-Apr-17 13:28N 66°22' E 012°21'0 0.1
2017-Apr-17 13:00N 66°22' E 012°21'2 2.5
2017-Apr-17 12:24N 66°22' E 012°25'0 0.7
2017-Apr-17 12:00N 66°22' E 012°24'0 0.5
2017-Apr-17 11:28N 66°22' E 012°24'  

Dump ship's entire track history